Home > Products > Valid Products > TAF

000
FTUS43 KJKL 291700
TAFLOZ
TAF
KLOZ 291729Z 2918/3018 33006KT P6SM BKN040
     FM300100 VRB03KT P6SM SCT040
     FM300800 00000KT 3SM BR SCT040
     FM300930 00000KT 1SM BR SCT008
     FM301300 VRB05KT P6SM BKN040=



000
FTUS43 KJKL 291700
TAFJKL
TAF
KJKL 291729Z 2918/3018 VRB05KT P6SM SCT020 BKN040
     FM300100 VRB03KT P6SM SCT040
     FM301000 00000KT 4SM BR SCT040
     FM301300 VRB05KT P6SM BKN040=



000
FTUS43 KJKL 291700
TAFSME
TAF
KSME 291729Z 2918/3018 33007KT P6SM BKN040
     FM300100 VRB03KT P6SM SCT040
     FM300730 00000KT 3SM BR SCT040
     FM300900 00000KT 1SM BR SCT008
     FM301300 VRB05KT P6SM BKN040=



000
FTUS43 KJKL 291500 AAB
TAFJKL
TAF AMD
KJKL 291534Z 2916/3012 32005KT P6SM BKN015 OVC030
      TEMPO 2916/2919 SCT015 BKN035
     FM292300 VRB03KT P6SM FEW050=



000
FTUS43 KJKL 291400 AAA
TAFJKL
TAF AMD
KJKL 291443Z 2915/3012 32005KT P6SM SCT020 BKN030
     FM292300 VRB03KT P6SM FEW050=



000
FTUS43 KJKL 291100
TAFSME
TAF
KSME 291139Z 2912/3012 34007KT P6SM FEW020 BKN040
     FM292300 VRB03KT P6SM FEW050=



000
FTUS43 KJKL 291100
TAFJKL
TAF
KJKL 291139Z 2912/3012 32005KT P6SM BKN040
     FM292300 VRB03KT P6SM FEW050=



000
FTUS43 KJKL 291100
TAFLOZ
TAF
KLOZ 291139Z 2912/3012 34007KT P6SM BKN040
     FM292300 VRB03KT P6SM FEW050=



000
FTUS43 KJKL 290500
TAFSME
TAF
KSME 290539Z 2906/3006 34005KT P6SM BKN050
     FM291000 00000KT 5SM BR SCT007 OVC015
     FM291300 31005KT 5SM BR FEW007 BKN025
     FM291400 33007KT P6SM FEW025 SCT050=



000
FTUS43 KJKL 290500
TAFJKL
TAF
KJKL 290539Z 2906/3006 32005KT P6SM BKN050
     FM291000 VRB03KT 5SM BR SCT007 OVC015
     FM291300 31005KT 5SM BR FEW007 BKN025
     FM291500 32005KT P6SM SCT050=



000
FTUS43 KJKL 290500
TAFLOZ
TAF
KLOZ 290539Z 2906/3006 34007KT P6SM BKN050
     FM291000 00000KT 5SM BR SCT015 OVC025
     FM291300 31005KT 5SM BR FEW007 BKN025
     FM291400 33007KT P6SM FEW025 SCT050=



000
FTUS43 KJKL 282300
TAFLOZ
TAF
KLOZ 282335Z 2900/2924 34007KT P6SM FEW025 BKN080
     FM290600 VRB03KT P6SM SCT015 OVC025
     FM290900 00000KT 3SM BR SCT007 OVC015
     FM291100 30003KT 1SM BR OVC007
     FM291300 31005KT 6SM BR FEW007 BKN025
     FM291400 33007KT P6SM FEW025 BKN050=



000
FTUS43 KJKL 282300
TAFJKL
TAF
KJKL 282335Z 2900/2924 32005KT P6SM FEW025 BKN070
     FM290800 VRB03KT P6SM SCT007 OVC015
     FM291300 31005KT 6SM BR FEW007 BKN025
     FM291400 32005KT P6SM BKN050=



000
FTUS43 KJKL 282300
TAFSME
TAF
KSME 282335Z 2900/2924 34005KT P6SM FEW025 BKN080
     FM290600 VRB03KT P6SM SCT015 OVC025
     FM290900 00000KT 3SM BR SCT007 OVC015
     FM291100 30003KT 1SM BR OVC007
     FM291300 31005KT 6SM BR FEW007 BKN025
     FM291400 33007KT P6SM FEW025 BKN050=



000
FTUS43 KJKL 281700
TAFSME
TAF
KSME 281739Z 2818/2918 30010G18KT P6SM SCT025 BKN045
     FM290600 VRB03KT P6SM SCT015 OVC025
     FM290900 00000KT 3SM BR SCT020
     FM291400 VRB05KT P6SM SCT025=



000
FTUS43 KJKL 281700
TAFLOZ
TAF
KLOZ 281739Z 2818/2918 30010G18KT P6SM SCT025 BKN045
     FM290600 VRB03KT P6SM SCT015 OVC025
     FM290900 00000KT 3SM BR SCT020
     FM291400 VRB05KT P6SM SCT025=



000
FTUS43 KJKL 281700
TAFJKL
TAF
KJKL 281739Z 2818/2918 30008G15KT P6SM BKN025 OVC045
      TEMPO 2818/2822 SCT025
     FM290800 VRB03KT P6SM SCT015 OVC025
     FM291400 VRB05KT P6SM SCT025=



000
FTUS43 KJKL 281600 AAA
TAFSME
TAF AMD
KSME 281626Z 2816/2912 30010G18KT P6SM SCT030 BKN040
     FM290000 34005KT P6SM BKN040
     FM290600 VRB03KT P6SM OVC020=



000
FTUS43 KJKL 281600 AAC
TAFJKL
TAF AMD
KJKL 281625Z 2816/2912 30008G15KT P6SM SCT025 BKN045
     FM290600 VRB03KT P6SM OVC020=



000
FTUS43 KJKL 281600 AAA
TAFLOZ
TAF AMD
KLOZ 281625Z 2816/2912 30010G18KT P6SM SCT025 BKN035
     FM290000 33005KT P6SM BKN040
     FM290600 VRB03KT P6SM OVC020=



000
FTUS43 KJKL 281500 AAB
TAFJKL
TAF AMD
KJKL 281528Z 2815/2912 29010G15KT P6SM BKN025 OVC045
     FM290600 VRB03KT P6SM OVC020=



000
FTUS43 KJKL 281300 AAA
TAFJKL
TAF AMD
KJKL 281346Z 2814/2912 29010KT P6SM BKN015
     FM290600 VRB03KT P6SM OVC020=



000
FTUS43 KJKL 281100
TAFJKL
TAF
KJKL 281128Z 2812/2912 VRB05KT P6SM FEW045
     FM281400 29010KT P6SM BKN025
     FM290600 VRB03KT P6SM OVC020=



000
FTUS43 KJKL 281100
TAFSME
TAF
KSME 281128Z 2812/2912 27003KT P6SM SCT045
     FM281500 30010G18KT P6SM BKN025
     FM290000 34005KT P6SM BKN040
     FM290600 VRB03KT P6SM OVC020=



000
FTUS43 KJKL 281100
TAFLOZ
TAF
KLOZ 281128Z 2812/2912 VRB05KT P6SM SCT045
     FM281500 30010G18KT P6SM BKN025
     FM290000 33005KT P6SM BKN040
     FM290600 VRB03KT P6SM OVC020=



000
FTUS43 KJKL 280500
TAFLOZ
TAF
KLOZ 280535Z 2806/2906 VRB03KT P6SM FEW030 BKN050
     FM280800 28005KT P6SM FEW080
     FM281600 32010G18KT P6SM BKN045
     FM290000 33005KT P6SM BKN040=



000
FTUS43 KJKL 280500
TAFJKL
TAF
KJKL 280535Z 2806/2906 VRB03KT 2SM BR BKN050
     FM280800 VRB03KT P6SM FEW080
     FM281600 29005KT P6SM BKN045=



000
FTUS43 KJKL 280500
TAFSME
TAF
KSME 280535Z 2806/2906 27005KT P6SM SCT035
     FM280800 27003KT P6SM FEW080
     FM281600 30010G18KT P6SM BKN045
     FM290000 34005KT P6SM BKN040=



000
FTUS43 KJKL 272300 RRA
TAFSME
TAF
KSME 272358Z 2800/2824 27005KT P6SM VCTS SCT040CB
     FM280700 VRB03KT 4SM BR BKN025
     FM281100 00000KT 2SM BR OVC003
     FM281300 VRB03KT 4SM BR BKN025
     FM281400 29010KT P6SM BKN050=



000
FTUS43 KJKL 272300 RRA
TAFJKL
TAF
KJKL 272358Z 2800/2824 27005KT P6SM VCTS FEW003 SCT025CB BKN035
     FM280400 VRB03KT 4SM BR FEW003 BKN025
     FM280700 00000KT 2SM BR OVC003
     FM281400 28005KT P6SM OVC025
     FM282100 30005KT P6SM BKN050=



000
FTUS43 KJKL 272300 RRA
TAFLOZ
TAF
KLOZ 272358Z 2800/2824 27005KT P6SM VCTS SCT040CB
     FM280700 VRB03KT 4SM BR BKN025
     FM281100 00000KT 2SM BR OVC003
     FM281300 VRB03KT 4SM BR BKN025
     FM281400 29010KT P6SM BKN050=



000
FTUS43 KJKL 272200 AAC
TAFSME
TAF AMD
KSME 272233Z 2723/2818 VRB05KT P6SM VCSH SCT035 BKN100
     FM272300 27005KT P6SM VCSH SCT040
     FM280400 VRB03KT 3SM BR BKN030
     FM281300 29010KT P6SM SCT030=



000
FTUS43 KJKL 272200 AAA
TAFLOZ
TAF AMD
KLOZ 272229Z 2722/2818 VRB05KT P6SM VCSH SCT035 BKN100
     FM272300 27005KT P6SM VCSH SCT040
     FM280400 VRB03KT 3SM BR BKN030
     FM281300 29010KT P6SM SCT030=



000
FTUS43 KJKL 272200 AAB
TAFSME
TAF AMD
KSME 272226Z 2722/2818 23010G18KT P6SM VCSH SCT035 BKN100
     FM272300 27005KT P6SM VCTS SCT040CB
     FM280400 VRB03KT 3SM BR BKN030
     FM281300 29010KT P6SM SCT030=



000
FTUS43 KJKL 271900 AAA
TAFSME
TAF AMD
KSME 271935Z 2720/2818 23010G18KT 6SM BR VCTS SCT035CB BKN100
      TEMPO 2720/2723 VRB15G30KT 1SM +TSRA BR BKN025CB
     FM272300 27005KT P6SM VCTS SCT040CB
     FM280400 VRB03KT 3SM BR BKN030
      AMD NOT SKED=



000
FTUS43 KJKL 271700 RRA
TAFSME
TAF
KSME 271748Z 2718/2818 23010G18KT 6SM BR VCTS SCT035CB BKN100
      TEMPO 2718/2722 VRB15G30KT 1SM +TSRA BR BKN025CB
     FM272300 27005KT P6SM VCTS SCT040CB
     FM280400 VRB03KT 3SM BR BKN030=



000
FTUS43 KJKL 271700 RRA
TAFJKL
TAF
KJKL 271748Z 2718/2818 VRB05KT 6SM BR VCTS SCT008 SCT035CB BKN100
      TEMPO 2718/2722 VRB15G30KT 1SM +TSRA BR BKN025CB
     FM272300 27005KT P6SM VCTS SCT040CB
     FM280400 VRB03KT 4SM BR BKN030=



000
FTUS43 KJKL 271700 RRA
TAFLOZ
TAF
KLOZ 271748Z 2718/2818 VRB05KT 6SM BR VCTS SCT020 SCT035CB BKN100
      TEMPO 2718/2722 VRB15G30KT 1SM +TSRA BR BKN025CB
     FM272300 27005KT P6SM VCTS SCT040CB
     FM280400 VRB03KT 3SM BR BKN030=



000
FTUS43 KJKL 271600 AAA
TAFJKL
TAF AMD
KJKL 271629Z 2716/2812 VRB05KT 5SM BR VCTS SCT008 SCT035CB BKN100
      TEMPO 2716/2718 1/2SM FG
     FM271800 VRB05KT 6SM BR VCTS SCT008 SCT035CB BKN100
      TEMPO 2718/2722 VRB15G30KT 2SM +TSRA BR BKN025CB
     FM272300 27005KT P6SM VCTS SCT040CB BKN100
     FM280700 VRB03KT 4SM BR BKN020=



000
FTUS43 KJKL 271100
TAFLOZ
TAF
KLOZ 271132Z 2712/2812 22005KT P6SM -SHRA VCTS BKN030CB BKN090
     FM271600 24010G20KT P6SM VCTS SCT040CB BKN100
      TEMPO 2718/2722 VRB20G40KT 2SM +TSRAPL BR BKN025CB
     FM272200 27005KT P6SM VCTS SCT040CB BKN100
     FM280700 27004KT 4SM BR BKN020=



000
FTUS43 KJKL 271100
TAFSME
TAF
KSME 271132Z 2712/2812 VRB05KT P6SM -SHRA VCTS BKN030CB BKN090
     FM271600 24010G20KT P6SM VCTS SCT040CB BKN100
      TEMPO 2718/2722 VRB20G40KT 2SM +TSRAPL BR BKN025CB
     FM272200 27005KT P6SM VCTS SCT040CB BKN100
     FM280700 29005KT 4SM BR BKN020=



000
FTUS43 KJKL 271100
TAFJKL
TAF
KJKL 271132Z 2712/2812 VRB03KT P6SM -SHRA BKN035 BKN090
     FM271500 24008G18KT P6SM VCTS SCT030CB BKN100
      TEMPO 2718/2722 VRB20G40KT 2SM +TSRAPL BR BKN025CB
     FM272300 27005KT P6SM VCTS SCT040CB BKN100
     FM280700 VRB03KT 4SM BR BKN020=



000
FTUS43 KJKL 270500
TAFSME
TAF
KSME 270526Z 2706/2806 29004KT P6SM SHRA VCTS SCT040CB BKN100
     FM271500 24010G20KT P6SM VCTS SCT040CB BKN100
      TEMPO 2718/2722 VRB20G40KT 4SM +TSRAPL BR BKN025CB
     FM272200 27005KT P6SM VCTS SCT040CB BKN100=



000
FTUS43 KJKL 270500
TAFLOZ
TAF
KLOZ 270526Z 2706/2806 22003KT P6SM SHRA VCTS SCT040CB BKN100
     FM271500 24010G20KT P6SM VCTS SCT040CB BKN100
      TEMPO 2718/2722 VRB20G40KT 4SM +TSRAPL BR BKN025CB
     FM272200 27005KT P6SM VCTS SCT040CB BKN100=



000
FTUS43 KJKL 270500
TAFJKL
TAF
KJKL 270526Z 2706/2806 VRB03KT P6SM SHRA VCTS SCT050CB BKN100
     FM271500 23008G18KT P6SM VCTS SCT040CB BKN100
      TEMPO 2718/2722 VRB20G40KT 4SM +TSRAPL BR BKN025CB
     FM272300 27005KT P6SM VCTS SCT040CB BKN100=



000
FTUS43 KJKL 262300
TAFLOZ
TAF
KLOZ 262334Z 2700/2724 VRB03KT P6SM SCT150 BKN250
     FM270600 18004KT P6SM VCTS SCT040CB BKN100
      TEMPO 2706/2710 VRB20G30KT 4SM +TSRA BR BKN025CB
     FM271500 24010G20KT P6SM VCTS SCT040CB BKN100
      TEMPO 2718/2722 VRB20G40KT 4SM +TSRAPL BR BKN025CB
     FM272200 27005KT P6SM VCTS SCT040CB BKN100=



000
FTUS43 KJKL 262300
TAFJKL
TAF
KJKL 262334Z 2700/2724 VRB03KT P6SM SCT150 BKN250
     FM270500 VRB03KT P6SM VCTS SCT040CB BKN100
      TEMPO 2707/2711 VRB10G20KT 4SM +TSRA BR BKN025CB
     FM271500 23008KT P6SM VCTS SCT040CB BKN100
      TEMPO 2719/2723 VRB20G40KT 4SM +TSRAPL BR BKN025CB
     FM272300 27005KT P6SM VCTS SCT040CB BKN100=



000
FTUS43 KJKL 262300
TAFSME
TAF
KSME 262334Z 2700/2724 VRB03KT P6SM SCT150 BKN250
     FM270500 18004KT P6SM VCTS SCT040CB BKN100
      TEMPO 2705/2709 VRB20G30KT 4SM +TSRA BR BKN025CB
     FM271500 24010G20KT P6SM VCTS SCT040CB BKN100
      TEMPO 2718/2722 VRB20G40KT 4SM +TSRAPL BR BKN025CB
     FM272200 27005KT P6SM VCTS SCT040CB BKN100=



    US Dept of Commerce
    National Oceanic and Atmospheric Administration
    National Weather Service
    1325 East West Highway
    Silver Spring, MD 20910
    Page Author: NWS Internet Services Team
Disclaimer
Information Quality
Credits
Glossary
Privacy Policy
Freedom of Information Act (FOIA)
About Us
Career Opportunities